sensor_id;sensor_type;location;lat;lon;timestamp;P1;durP1;ratioP1;P2;durP2;ratioP2
85622;SDS011;76049;43.076;25.632;2024-03-07T00:00:32;18.30;;;8.00;;
85622;SDS011;76049;43.076;25.632;2024-03-07T00:06:08;16.80;;;7.90;;
85622;SDS011;76049;43.076;25.632;2024-03-07T00:11:16;15.10;;;9.90;;
85622;SDS011;76049;43.076;25.632;2024-03-07T00:16:25;17.90;;;9.80;;
85622;SDS011;76049;43.076;25.632;2024-03-07T00:21:33;16.40;;;8.70;;
85622;SDS011;76049;43.076;25.632;2024-03-07T00:26:41;16.50;;;8.20;;
85622;SDS011;76049;43.076;25.632;2024-03-07T00:31:49;13.90;;;7.60;;
85622;SDS011;76049;43.076;25.632;2024-03-07T00:36:57;16.40;;;8.20;;
85622;SDS011;76049;43.076;25.632;2024-03-07T00:42:06;15.80;;;8.20;;
85622;SDS011;76049;43.076;25.632;2024-03-07T00:49:59;10.50;;;4.40;;
85622;SDS011;76049;43.076;25.632;2024-03-07T00:55:09;18.30;;;8.40;;
85622;SDS011;76049;43.076;25.632;2024-03-07T01:00:18;17.30;;;8.60;;
85622;SDS011;76049;43.076;25.632;2024-03-07T01:05:26;14.50;;;8.20;;
85622;SDS011;76049;43.076;25.632;2024-03-07T01:10:34;14.60;;;7.70;;
85622;SDS011;76049;43.076;25.632;2024-03-07T01:15:42;16.00;;;8.30;;
85622;SDS011;76049;43.076;25.632;2024-03-07T01:20:49;16.30;;;8.00;;
85622;SDS011;76049;43.076;25.632;2024-03-07T01:25:59;21.00;;;10.60;;
85622;SDS011;76049;43.076;25.632;2024-03-07T01:31:07;18.20;;;8.60;;
85622;SDS011;76049;43.076;25.632;2024-03-07T01:36:16;17.10;;;7.00;;
85622;SDS011;76049;43.076;25.632;2024-03-07T01:41:24;18.20;;;8.90;;
85622;SDS011;76049;43.076;25.632;2024-03-07T01:46:32;17.20;;;8.30;;
85622;SDS011;76049;43.076;25.632;2024-03-07T01:51:40;17.30;;;9.20;;
85622;SDS011;76049;43.076;25.632;2024-03-07T01:56:48;15.10;;;8.80;;
85622;SDS011;76049;43.076;25.632;2024-03-07T02:01:58;15.00;;;8.40;;
85622;SDS011;76049;43.076;25.632;2024-03-07T02:07:07;14.60;;;8.60;;
85622;SDS011;76049;43.076;25.632;2024-03-07T02:12:16;16.00;;;8.00;;
85622;SDS011;76049;43.076;25.632;2024-03-07T02:17:25;16.50;;;9.80;;
85622;SDS011;76049;43.076;25.632;2024-03-07T02:22:35;16.80;;;8.10;;
85622;SDS011;76049;43.076;25.632;2024-03-07T02:27:43;13.80;;;7.30;;
85622;SDS011;76049;43.076;25.632;2024-03-07T02:32:50;15.80;;;8.20;;
85622;SDS011;76049;43.076;25.632;2024-03-07T02:37:59;14.20;;;8.00;;
85622;SDS011;76049;43.076;25.632;2024-03-07T02:43:07;15.30;;;8.90;;
85622;SDS011;76049;43.076;25.632;2024-03-07T02:48:15;17.80;;;8.60;;
85622;SDS011;76049;43.076;25.632;2024-03-07T02:53:24;20.50;;;8.90;;
85622;SDS011;76049;43.076;25.632;2024-03-07T02:58:32;15.30;;;9.60;;
85622;SDS011;76049;43.076;25.632;2024-03-07T03:03:41;18.70;;;8.50;;
85622;SDS011;76049;43.076;25.632;2024-03-07T03:08:48;6.70;;;5.30;;
85622;SDS011;76049;43.076;25.632;2024-03-07T03:13:58;16.30;;;8.80;;
85622;SDS011;76049;43.076;25.632;2024-03-07T03:19:07;17.40;;;8.90;;
85622;SDS011;76049;43.076;25.632;2024-03-07T03:24:15;14.40;;;7.60;;
85622;SDS011;76049;43.076;25.632;2024-03-07T03:29:23;14.60;;;7.90;;
85622;SDS011;76049;43.076;25.632;2024-03-07T03:34:32;18.50;;;8.40;;
85622;SDS011;76049;43.076;25.632;2024-03-07T03:39:40;13.40;;;7.10;;
85622;SDS011;76049;43.076;25.632;2024-03-07T03:44:48;14.40;;;7.00;;
85622;SDS011;76049;43.076;25.632;2024-03-07T03:49:57;15.10;;;8.20;;
85622;SDS011;76049;43.076;25.632;2024-03-07T03:55:07;13.60;;;8.30;;
85622;SDS011;76049;43.076;25.632;2024-03-07T04:00:16;11.60;;;6.90;;
85622;SDS011;76049;43.076;25.632;2024-03-07T04:05:27;13.80;;;6.00;;
85622;SDS011;76049;43.076;25.632;2024-03-07T04:10:36;14.30;;;7.50;;
85622;SDS011;76049;43.076;25.632;2024-03-07T04:15:44;16.90;;;7.70;;
85622;SDS011;76049;43.076;25.632;2024-03-07T04:20:54;15.80;;;8.40;;
85622;SDS011;76049;43.076;25.632;2024-03-07T04:26:02;17.80;;;9.20;;
85622;SDS011;76049;43.076;25.632;2024-03-07T04:31:10;14.30;;;6.90;;
85622;SDS011;76049;43.076;25.632;2024-03-07T04:36:19;15.40;;;8.10;;
85622;SDS011;76049;43.076;25.632;2024-03-07T04:41:29;15.60;;;7.40;;
85622;SDS011;76049;43.076;25.632;2024-03-07T04:46:37;14.90;;;8.30;;
85622;SDS011;76049;43.076;25.632;2024-03-07T04:51:50;14.90;;;9.20;;
85622;SDS011;76049;43.076;25.632;2024-03-07T04:56:58;13.30;;;8.70;;
85622;SDS011;76049;43.076;25.632;2024-03-07T05:02:07;15.90;;;9.00;;
85622;SDS011;76049;43.076;25.632;2024-03-07T05:07:15;16.70;;;8.60;;
85622;SDS011;76049;43.076;25.632;2024-03-07T05:12:26;17.70;;;8.20;;
85622;SDS011;76049;43.076;25.632;2024-03-07T05:17:33;18.80;;;7.50;;
85622;SDS011;76049;43.076;25.632;2024-03-07T05:22:43;18.20;;;9.00;;
85622;SDS011;76049;43.076;25.632;2024-03-07T05:27:55;16.70;;;8.70;;
85622;SDS011;76049;43.076;25.632;2024-03-07T05:33:03;18.10;;;8.90;;
85622;SDS011;76049;43.076;25.632;2024-03-07T05:38:11;17.80;;;9.80;;
85622;SDS011;76049;43.076;25.632;2024-03-07T05:43:19;19.60;;;10.10;;
85622;SDS011;76049;43.076;25.632;2024-03-07T05:48:28;20.40;;;10.60;;
85622;SDS011;76049;43.076;25.632;2024-03-07T05:53:38;18.50;;;9.10;;
85622;SDS011;76049;43.076;25.632;2024-03-07T05:58:46;17.60;;;9.40;;
85622;SDS011;76049;43.076;25.632;2024-03-07T06:03:55;18.00;;;9.80;;
85622;SDS011;76049;43.076;25.632;2024-03-07T06:09:04;15.70;;;9.50;;
85622;SDS011;76049;43.076;25.632;2024-03-07T06:14:13;17.00;;;10.30;;
85622;SDS011;76049;43.076;25.632;2024-03-07T06:19:21;16.20;;;9.20;;
85622;SDS011;76049;43.076;25.632;2024-03-07T06:24:30;15.00;;;9.30;;
85622;SDS011;76049;43.076;25.632;2024-03-07T06:29:38;18.10;;;9.30;;
85622;SDS011;76049;43.076;25.632;2024-03-07T06:34:46;18.70;;;11.00;;
85622;SDS011;76049;43.076;25.632;2024-03-07T06:39:54;16.40;;;8.70;;
85622;SDS011;76049;43.076;25.632;2024-03-07T06:45:02;17.90;;;10.30;;
85622;SDS011;76049;43.076;25.632;2024-03-07T06:50:12;14.90;;;8.10;;
85622;SDS011;76049;43.076;25.632;2024-03-07T06:55:24;16.90;;;8.70;;
85622;SDS011;76049;43.076;25.632;2024-03-07T07:00:32;17.50;;;11.10;;
85622;SDS011;76049;43.076;25.632;2024-03-07T07:05:41;16.90;;;8.30;;
85622;SDS011;76049;43.076;25.632;2024-03-07T07:10:49;23.80;;;10.70;;
85622;SDS011;76049;43.076;25.632;2024-03-07T07:15:58;18.90;;;10.30;;
85622;SDS011;76049;43.076;25.632;2024-03-07T07:21:07;19.10;;;10.70;;
85622;SDS011;76049;43.076;25.632;2024-03-07T07:26:17;18.80;;;10.10;;
85622;SDS011;76049;43.076;25.632;2024-03-07T07:31:25;20.30;;;12.90;;
85622;SDS011;76049;43.076;25.632;2024-03-07T07:36:33;23.20;;;11.40;;
85622;SDS011;76049;43.076;25.632;2024-03-07T07:41:41;17.20;;;10.30;;
85622;SDS011;76049;43.076;25.632;2024-03-07T07:46:49;19.40;;;12.10;;
85622;SDS011;76049;43.076;25.632;2024-03-07T07:51:57;21.80;;;13.20;;
85622;SDS011;76049;43.076;25.632;2024-03-07T07:57:06;21.50;;;13.70;;
85622;SDS011;76049;43.076;25.632;2024-03-07T08:02:13;22.80;;;13.10;;
85622;SDS011;76049;43.076;25.632;2024-03-07T08:07:21;22.40;;;11.30;;
85622;SDS011;76049;43.076;25.632;2024-03-07T08:12:29;22.60;;;13.50;;
85622;SDS011;76049;43.076;25.632;2024-03-07T08:17:37;20.90;;;11.20;;
85622;SDS011;76049;43.076;25.632;2024-03-07T08:22:47;17.30;;;10.60;;
85622;SDS011;76049;43.076;25.632;2024-03-07T08:27:57;20.80;;;10.90;;
85622;SDS011;76049;43.076;25.632;2024-03-07T08:33:06;19.60;;;11.50;;
85622;SDS011;76049;43.076;25.632;2024-03-07T08:38:15;16.60;;;10.80;;
85622;SDS011;76049;43.076;25.632;2024-03-07T08:43:25;22.20;;;10.90;;
85622;SDS011;76049;43.076;25.632;2024-03-07T08:48:34;22.80;;;13.30;;
85622;SDS011;76049;43.076;25.632;2024-03-07T08:53:42;29.60;;;15.00;;
85622;SDS011;76049;43.076;25.632;2024-03-07T08:58:50;17.40;;;9.20;;
85622;SDS011;76049;43.076;25.632;2024-03-07T09:03:59;17.60;;;10.60;;
85622;SDS011;76049;43.076;25.632;2024-03-07T09:09:08;15.70;;;9.30;;
85622;SDS011;76049;43.076;25.632;2024-03-07T09:14:15;17.60;;;8.30;;
85622;SDS011;76049;43.076;25.632;2024-03-07T09:19:25;18.30;;;9.30;;
85622;SDS011;76049;43.076;25.632;2024-03-07T09:24:32;18.50;;;9.30;;
85622;SDS011;76049;43.076;25.632;2024-03-07T09:29:42;16.00;;;10.40;;
85622;SDS011;76049;43.076;25.632;2024-03-07T09:34:51;15.40;;;8.90;;
85622;SDS011;76049;43.076;25.632;2024-03-07T09:39:59;13.50;;;7.50;;
85622;SDS011;76049;43.076;25.632;2024-03-07T09:45:09;15.90;;;9.30;;
85622;SDS011;76049;43.076;25.632;2024-03-07T09:50:22;15.70;;;11.10;;
85622;SDS011;76049;43.076;25.632;2024-03-07T09:55:32;13.50;;;7.70;;
85622;SDS011;76049;43.076;25.632;2024-03-07T10:00:40;16.30;;;7.60;;
85622;SDS011;76049;43.076;25.632;2024-03-07T10:05:48;12.20;;;7.60;;
85622;SDS011;76049;43.076;25.632;2024-03-07T10:10:58;14.50;;;8.60;;
85622;SDS011;76049;43.076;25.632;2024-03-07T10:16:07;12.90;;;7.30;;
85622;SDS011;76049;43.076;25.632;2024-03-07T10:21:18;12.90;;;8.60;;
85622;SDS011;76049;43.076;25.632;2024-03-07T10:26:28;13.60;;;8.10;;
85622;SDS011;76049;43.076;25.632;2024-03-07T10:31:38;15.80;;;9.90;;
85622;SDS011;76049;43.076;25.632;2024-03-07T10:36:48;17.70;;;11.60;;
85622;SDS011;76049;43.076;25.632;2024-03-07T10:41:56;12.80;;;7.60;;
85622;SDS011;76049;43.076;25.632;2024-03-07T10:47:09;15.40;;;7.90;;
85622;SDS011;76049;43.076;25.632;2024-03-07T10:52:23;13.50;;;6.90;;
85622;SDS011;76049;43.076;25.632;2024-03-07T10:57:44;12.50;;;6.80;;
85622;SDS011;76049;43.076;25.632;2024-03-07T11:02:58;12.90;;;6.70;;
85622;SDS011;76049;43.076;25.632;2024-03-07T11:08:07;12.90;;;6.90;;
85622;SDS011;76049;43.076;25.632;2024-03-07T11:13:16;13.90;;;6.70;;
85622;SDS011;76049;43.076;25.632;2024-03-07T11:18:25;11.70;;;6.80;;
85622;SDS011;76049;43.076;25.632;2024-03-07T11:23:34;12.10;;;8.10;;
85622;SDS011;76049;43.076;25.632;2024-03-07T11:28:45;11.20;;;7.20;;
85622;SDS011;76049;43.076;25.632;2024-03-07T11:34:13;13.60;;;8.80;;
85622;SDS011;76049;43.076;25.632;2024-03-07T11:39:40;11.90;;;6.70;;
85622;SDS011;76049;43.076;25.632;2024-03-07T11:44:49;12.70;;;7.00;;
85622;SDS011;76049;43.076;25.632;2024-03-07T11:50:00;15.50;;;8.20;;
85622;SDS011;76049;43.076;25.632;2024-03-07T11:55:12;13.00;;;6.50;;
85622;SDS011;76049;43.076;25.632;2024-03-07T12:00:23;12.20;;;7.30;;
85622;SDS011;76049;43.076;25.632;2024-03-07T12:05:38;13.30;;;5.80;;
85622;SDS011;76049;43.076;25.632;2024-03-07T12:10:47;11.30;;;7.70;;
85622;SDS011;76049;43.076;25.632;2024-03-07T12:16:00;11.30;;;6.70;;
85622;SDS011;76049;43.076;25.632;2024-03-07T12:21:08;13.10;;;8.30;;
85622;SDS011;76049;43.076;25.632;2024-03-07T12:26:19;12.30;;;7.60;;
85622;SDS011;76049;43.076;25.632;2024-03-07T12:31:30;12.90;;;10.00;;
85622;SDS011;76049;43.076;25.632;2024-03-07T12:36:38;12.10;;;7.00;;
85622;SDS011;76049;43.076;25.632;2024-03-07T12:41:51;11.10;;;7.10;;
85622;SDS011;76049;43.076;25.632;2024-03-07T12:47:01;10.80;;;5.70;;
85622;SDS011;76049;43.076;25.632;2024-03-07T12:57:16;18.30;;;10.00;;
85622;SDS011;76049;43.076;25.632;2024-03-07T13:02:25;11.90;;;7.80;;
85622;SDS011;76049;43.076;25.632;2024-03-07T13:07:34;15.60;;;11.70;;
85622;SDS011;76049;43.076;25.632;2024-03-07T13:12:43;14.80;;;9.10;;
85622;SDS011;76049;43.076;25.632;2024-03-07T13:17:53;10.20;;;5.70;;
85622;SDS011;76049;43.076;25.632;2024-03-07T13:23:01;9.90;;;4.90;;
85622;SDS011;76049;43.076;25.632;2024-03-07T13:28:10;10.90;;;6.20;;
85622;SDS011;76049;43.076;25.632;2024-03-07T13:33:21;9.20;;;5.70;;
85622;SDS011;76049;43.076;25.632;2024-03-07T13:38:29;10.90;;;6.60;;
85622;SDS011;76049;43.076;25.632;2024-03-07T13:43:38;9.60;;;5.40;;
85622;SDS011;76049;43.076;25.632;2024-03-07T13:48:45;7.80;;;4.40;;
85622;SDS011;76049;43.076;25.632;2024-03-07T13:53:53;10.90;;;6.40;;
85622;SDS011;76049;43.076;25.632;2024-03-07T14:10:39;12.40;;;6.40;;
85622;SDS011;76049;43.076;25.632;2024-03-07T14:16:32;12.90;;;6.70;;
85622;SDS011;76049;43.076;25.632;2024-03-07T14:22:12;11.50;;;6.20;;
85622;SDS011;76049;43.076;25.632;2024-03-07T14:27:32;9.40;;;5.50;;
85622;SDS011;76049;43.076;25.632;2024-03-07T14:32:43;9.60;;;4.40;;
85622;SDS011;76049;43.076;25.632;2024-03-07T14:37:52;10.10;;;6.30;;
85622;SDS011;76049;43.076;25.632;2024-03-07T14:43:07;10.20;;;6.10;;
85622;SDS011;76049;43.076;25.632;2024-03-07T14:48:16;9.60;;;5.40;;
85622;SDS011;76049;43.076;25.632;2024-03-07T14:53:24;9.30;;;5.60;;
85622;SDS011;76049;43.076;25.632;2024-03-07T14:58:32;10.40;;;5.70;;
85622;SDS011;76049;43.076;25.632;2024-03-07T15:03:39;11.40;;;6.90;;
85622;SDS011;76049;43.076;25.632;2024-03-07T15:08:50;10.40;;;5.60;;
85622;SDS011;76049;43.076;25.632;2024-03-07T15:13:57;11.20;;;6.90;;
85622;SDS011;76049;43.076;25.632;2024-03-07T15:19:08;9.20;;;6.10;;
85622;SDS011;76049;43.076;25.632;2024-03-07T15:24:17;9.30;;;5.10;;
85622;SDS011;76049;43.076;25.632;2024-03-07T15:29:25;9.30;;;5.60;;
85622;SDS011;76049;43.076;25.632;2024-03-07T15:34:33;11.70;;;7.10;;
85622;SDS011;76049;43.076;25.632;2024-03-07T15:39:42;10.70;;;6.40;;
85622;SDS011;76049;43.076;25.632;2024-03-07T15:44:52;11.10;;;6.00;;
85622;SDS011;76049;43.076;25.632;2024-03-07T15:50:00;13.20;;;7.90;;
85622;SDS011;76049;43.076;25.632;2024-03-07T15:55:10;9.90;;;5.40;;
85622;SDS011;76049;43.076;25.632;2024-03-07T16:00:20;14.90;;;8.40;;
85622;SDS011;76049;43.076;25.632;2024-03-07T16:05:29;16.00;;;9.60;;
85622;SDS011;76049;43.076;25.632;2024-03-07T16:10:39;18.30;;;10.20;;
85622;SDS011;76049;43.076;25.632;2024-03-07T16:15:47;20.30;;;12.70;;
85622;SDS011;76049;43.076;25.632;2024-03-07T16:20:57;17.00;;;11.60;;
85622;SDS011;76049;43.076;25.632;2024-03-07T16:26:05;18.40;;;13.20;;
85622;SDS011;76049;43.076;25.632;2024-03-07T16:31:13;13.90;;;8.20;;
85622;SDS011;76049;43.076;25.632;2024-03-07T16:36:22;18.20;;;10.90;;
85622;SDS011;76049;43.076;25.632;2024-03-07T16:41:31;13.90;;;7.70;;
85622;SDS011;76049;43.076;25.632;2024-03-07T16:46:40;14.80;;;9.40;;
85622;SDS011;76049;43.076;25.632;2024-03-07T16:51:50;22.50;;;11.80;;
85622;SDS011;76049;43.076;25.632;2024-03-07T16:56:59;18.70;;;11.90;;
85622;SDS011;76049;43.076;25.632;2024-03-07T17:02:11;18.70;;;11.70;;
85622;SDS011;76049;43.076;25.632;2024-03-07T17:07:19;11.20;;;6.70;;
85622;SDS011;76049;43.076;25.632;2024-03-07T17:12:27;9.80;;;5.80;;
85622;SDS011;76049;43.076;25.632;2024-03-07T17:17:35;9.50;;;5.40;;
85622;SDS011;76049;43.076;25.632;2024-03-07T17:22:47;10.40;;;7.00;;
85622;SDS011;76049;43.076;25.632;2024-03-07T17:27:55;7.80;;;4.90;;
85622;SDS011;76049;43.076;25.632;2024-03-07T17:33:05;5.90;;;3.30;;
85622;SDS011;76049;43.076;25.632;2024-03-07T17:38:13;5.60;;;2.20;;
85622;SDS011;76049;43.076;25.632;2024-03-07T17:43:21;8.10;;;5.90;;
85622;SDS011;76049;43.076;25.632;2024-03-07T17:48:28;7.70;;;4.10;;
85622;SDS011;76049;43.076;25.632;2024-03-07T17:53:36;9.20;;;6.20;;
85622;SDS011;76049;43.076;25.632;2024-03-07T17:58:45;8.30;;;4.70;;
85622;SDS011;76049;43.076;25.632;2024-03-07T18:03:53;9.30;;;4.90;;
85622;SDS011;76049;43.076;25.632;2024-03-07T18:09:01;9.20;;;5.60;;
85622;SDS011;76049;43.076;25.632;2024-03-07T18:14:15;10.80;;;5.50;;
85622;SDS011;76049;43.076;25.632;2024-03-07T18:19:26;8.40;;;5.90;;
85622;SDS011;76049;43.076;25.632;2024-03-07T18:24:35;8.30;;;5.30;;
85622;SDS011;76049;43.076;25.632;2024-03-07T18:29:43;8.10;;;4.20;;
85622;SDS011;76049;43.076;25.632;2024-03-07T18:34:51;8.90;;;5.80;;
85622;SDS011;76049;43.076;25.632;2024-03-07T18:39:59;9.90;;;6.40;;
85622;SDS011;76049;43.076;25.632;2024-03-07T18:45:13;9.00;;;4.80;;
85622;SDS011;76049;43.076;25.632;2024-03-07T18:50:24;11.60;;;7.80;;
85622;SDS011;76049;43.076;25.632;2024-03-07T18:55:32;12.30;;;4.70;;
85622;SDS011;76049;43.076;25.632;2024-03-07T19:00:40;10.70;;;5.30;;
85622;SDS011;76049;43.076;25.632;2024-03-07T19:05:50;10.00;;;7.40;;
85622;SDS011;76049;43.076;25.632;2024-03-07T19:11:00;9.50;;;5.30;;
85622;SDS011;76049;43.076;25.632;2024-03-07T19:16:09;11.90;;;5.30;;
85622;SDS011;76049;43.076;25.632;2024-03-07T19:21:18;9.70;;;5.50;;
85622;SDS011;76049;43.076;25.632;2024-03-07T19:26:26;10.90;;;5.00;;
85622;SDS011;76049;43.076;25.632;2024-03-07T19:31:34;10.50;;;6.20;;
85622;SDS011;76049;43.076;25.632;2024-03-07T19:36:42;19.10;;;9.20;;
85622;SDS011;76049;43.076;25.632;2024-03-07T19:41:55;14.80;;;9.00;;
85622;SDS011;76049;43.076;25.632;2024-03-07T19:47:03;13.50;;;8.30;;
85622;SDS011;76049;43.076;25.632;2024-03-07T19:52:11;12.20;;;7.20;;
85622;SDS011;76049;43.076;25.632;2024-03-07T19:57:20;14.50;;;7.30;;
85622;SDS011;76049;43.076;25.632;2024-03-07T20:02:32;13.60;;;8.20;;
85622;SDS011;76049;43.076;25.632;2024-03-07T20:07:39;13.00;;;7.30;;
85622;SDS011;76049;43.076;25.632;2024-03-07T20:12:49;15.40;;;8.50;;
85622;SDS011;76049;43.076;25.632;2024-03-07T20:17:57;14.60;;;8.50;;
85622;SDS011;76049;43.076;25.632;2024-03-07T20:23:06;11.70;;;7.60;;
85622;SDS011;76049;43.076;25.632;2024-03-07T20:28:14;10.00;;;5.50;;
85622;SDS011;76049;43.076;25.632;2024-03-07T20:33:22;9.90;;;4.80;;
85622;SDS011;76049;43.076;25.632;2024-03-07T20:38:31;10.10;;;6.00;;
85622;SDS011;76049;43.076;25.632;2024-03-07T20:43:39;8.40;;;4.80;;
85622;SDS011;76049;43.076;25.632;2024-03-07T20:48:49;9.90;;;4.50;;
85622;SDS011;76049;43.076;25.632;2024-03-07T20:53:57;9.80;;;7.90;;
85622;SDS011;76049;43.076;25.632;2024-03-07T20:59:07;11.00;;;5.60;;
85622;SDS011;76049;43.076;25.632;2024-03-07T21:04:15;11.10;;;6.50;;
85622;SDS011;76049;43.076;25.632;2024-03-07T21:09:24;10.90;;;5.30;;
85622;SDS011;76049;43.076;25.632;2024-03-07T21:14:33;10.70;;;5.80;;
85622;SDS011;76049;43.076;25.632;2024-03-07T21:19:42;7.10;;;4.70;;
85622;SDS011;76049;43.076;25.632;2024-03-07T21:24:50;8.50;;;4.90;;
85622;SDS011;76049;43.076;25.632;2024-03-07T21:29:58;10.20;;;5.00;;
85622;SDS011;76049;43.076;25.632;2024-03-07T21:35:08;10.80;;;4.50;;
85622;SDS011;76049;43.076;25.632;2024-03-07T21:40:18;11.80;;;7.30;;
85622;SDS011;76049;43.076;25.632;2024-03-07T21:45:27;10.90;;;6.90;;
85622;SDS011;76049;43.076;25.632;2024-03-07T21:50:37;10.20;;;6.40;;
85622;SDS011;76049;43.076;25.632;2024-03-07T21:55:46;8.30;;;4.30;;
85622;SDS011;76049;43.076;25.632;2024-03-07T22:00:55;10.20;;;6.20;;
85622;SDS011;76049;43.076;25.632;2024-03-07T22:06:20;10.30;;;6.50;;
85622;SDS011;76049;43.076;25.632;2024-03-07T22:11:28;9.80;;;5.30;;
85622;SDS011;76049;43.076;25.632;2024-03-07T22:16:37;7.40;;;3.40;;
85622;SDS011;76049;43.076;25.632;2024-03-07T22:21:46;7.50;;;3.80;;
85622;SDS011;76049;43.076;25.632;2024-03-07T22:26:55;7.00;;;3.20;;
85622;SDS011;76049;43.076;25.632;2024-03-07T22:32:03;7.00;;;4.10;;
85622;SDS011;76049;43.076;25.632;2024-03-07T22:37:11;6.70;;;4.20;;
85622;SDS011;76049;43.076;25.632;2024-03-07T22:42:20;5.70;;;2.70;;
85622;SDS011;76049;43.076;25.632;2024-03-07T22:47:28;5.20;;;2.50;;
85622;SDS011;76049;43.076;25.632;2024-03-07T22:52:36;4.00;;;2.00;;
85622;SDS011;76049;43.076;25.632;2024-03-07T22:57:45;5.40;;;3.10;;
85622;SDS011;76049;43.076;25.632;2024-03-07T23:02:53;4.90;;;2.50;;
85622;SDS011;76049;43.076;25.632;2024-03-07T23:08:02;5.10;;;1.70;;
85622;SDS011;76049;43.076;25.632;2024-03-07T23:13:11;4.20;;;1.80;;
85622;SDS011;76049;43.076;25.632;2024-03-07T23:18:19;4.50;;;2.40;;
85622;SDS011;76049;43.076;25.632;2024-03-07T23:23:29;4.70;;;2.70;;
85622;SDS011;76049;43.076;25.632;2024-03-07T23:28:37;3.30;;;2.10;;
85622;SDS011;76049;43.076;25.632;2024-03-07T23:33:45;3.30;;;1.50;;
85622;SDS011;76049;43.076;25.632;2024-03-07T23:38:53;3.10;;;1.70;;
85622;SDS011;76049;43.076;25.632;2024-03-07T23:44:01;3.10;;;2.50;;
85622;SDS011;76049;43.076;25.632;2024-03-07T23:49:09;2.90;;;1.40;;
85622;SDS011;76049;43.076;25.632;2024-03-07T23:54:18;3.10;;;2.20;;
85622;SDS011;76049;43.076;25.632;2024-03-07T23:59:26;4.30;;;2.50;;
